CDG weather

Charles de Gaulle International Airport
Paris, Île-de-France, France

Public forecast

Using degrees Celsius for public forecast. Weather courtesy of forecast.io.

METAR (pilot weather report)

Retrieved 2017/12/15 22:30 UTC (0 seconds ago):

LFPG 152230Z 33011KT 9999 BKN012 BKN032 04/03 Q1004 NOSIG

TAF (pilot weather forecast)

Retrieved 2017/12/15 18:20 UTC (4 hours ago):

TAF LFPG 151700Z 1518/1624 31010KT 9999 SCT010 BKN020 TEMPO 1518/1602 BKN013 PROB40 TEMPO 1518/1607 4000 -SHRA SCT012TCU BKN013 PROB40 TEMPO 1602/1611 BKN008 TEMPO 1621/1624 4000 -SHRA SCT010CB TX06/1612Z TN02/1618Z